sensor_id;sensor_type;location;lat;lon;timestamp;temperature;humidity
33460;DHT22;19795;53.160;6.612;2023-06-14T03:39:46;13.60;99.90
33460;DHT22;19795;53.160;6.612;2023-06-14T03:44:41;13.60;99.90
33460;DHT22;19795;53.160;6.612;2023-06-14T03:49:35;13.60;99.90
33460;DHT22;19795;53.160;6.612;2023-06-14T03:52:01;13.70;99.90
33460;DHT22;19795;53.160;6.612;2023-06-14T03:54:27;13.70;99.90
33460;DHT22;19795;53.160;6.612;2023-06-14T03:56:54;13.70;99.90
33460;DHT22;19795;53.160;6.612;2023-06-14T03:59:19;13.80;99.90
33460;DHT22;19795;53.160;6.612;2023-06-14T04:01:45;14.10;99.90
33460;DHT22;19795;53.160;6.612;2023-06-14T04:04:12;14.60;99.90
33460;DHT22;19795;53.160;6.612;2023-06-14T04:06:37;15.10;99.90
33460;DHT22;19795;53.160;6.612;2023-06-14T04:09:03;15.30;99.90
33460;DHT22;19795;53.160;6.612;2023-06-14T04:11:29;15.40;99.90
33460;DHT22;19795;53.160;6.612;2023-06-14T04:13:55;15.40;99.90
33460;DHT22;19795;53.160;6.612;2023-06-14T04:16:22;15.30;99.90
33460;DHT22;19795;53.160;6.612;2023-06-14T04:18:48;15.50;99.90
33460;DHT22;19795;53.160;6.612;2023-06-14T04:21:16;15.70;99.90
33460;DHT22;19795;53.160;6.612;2023-06-14T04:23:42;15.90;99.90
33460;DHT22;19795;53.160;6.612;2023-06-14T04:26:09;15.80;99.90
33460;DHT22;19795;53.160;6.612;2023-06-14T04:28:36;15.30;99.90
33460;DHT22;19795;53.160;6.612;2023-06-14T04:31:06;14.90;99.90
33460;DHT22;19795;53.160;6.612;2023-06-14T04:33:35;14.70;99.90
33460;DHT22;19795;53.160;6.612;2023-06-14T04:36:09;14.50;99.90
33460;DHT22;19795;53.160;6.612;2023-06-14T04:38:37;14.40;99.90
33460;DHT22;19795;53.160;6.612;2023-06-14T04:41:03;14.30;99.90
33460;DHT22;19795;53.160;6.612;2023-06-14T04:43:28;14.30;99.90
33460;DHT22;19795;53.160;6.612;2023-06-14T04:45:54;14.30;99.90
33460;DHT22;19795;53.160;6.612;2023-06-14T04:48:22;14.30;99.90
33460;DHT22;19795;53.160;6.612;2023-06-14T04:50:48;14.40;99.90
33460;DHT22;19795;53.160;6.612;2023-06-14T04:53:19;14.40;99.90
33460;DHT22;19795;53.160;6.612;2023-06-14T04:55:47;14.40;99.90
33460;DHT22;19795;53.160;6.612;2023-06-14T04:58:12;14.50;99.90
33460;DHT22;19795;53.160;6.612;2023-06-14T05:00:38;14.60;99.90
33460;DHT22;19795;53.160;6.612;2023-06-14T05:03:04;14.70;99.90
33460;DHT22;19795;53.160;6.612;2023-06-14T05:05:31;14.70;99.90
33460;DHT22;19795;53.160;6.612;2023-06-14T05:07:57;14.70;99.90
33460;DHT22;19795;53.160;6.612;2023-06-14T05:10:24;15.00;99.90
33460;DHT22;19795;53.160;6.612;2023-06-14T05:12:50;15.70;99.90
33460;DHT22;19795;53.160;6.612;2023-06-14T05:15:18;16.70;99.90
33460;DHT22;19795;53.160;6.612;2023-06-14T05:17:46;17.40;99.90
33460;DHT22;19795;53.160;6.612;2023-06-14T05:20:21;18.10;99.90
33460;DHT22;19795;53.160;6.612;2023-06-14T05:22:48;18.50;99.90
33460;DHT22;19795;53.160;6.612;2023-06-14T05:25:23;18.70;99.90
33460;DHT22;19795;53.160;6.612;2023-06-14T05:27:51;19.00;99.90
33460;DHT22;19795;53.160;6.612;2023-06-14T05:30:16;19.30;99.90
33460;DHT22;19795;53.160;6.612;2023-06-14T05:32:42;19.70;99.90
33460;DHT22;19795;53.160;6.612;2023-06-14T05:35:08;19.80;99.90
33460;DHT22;19795;53.160;6.612;2023-06-14T05:37:34;20.10;99.90
33460;DHT22;19795;53.160;6.612;2023-06-14T05:40:00;20.00;99.90
33460;DHT22;19795;53.160;6.612;2023-06-14T05:42:25;20.10;99.90
33460;DHT22;19795;53.160;6.612;2023-06-14T05:44:51;20.20;99.90
33460;DHT22;19795;53.160;6.612;2023-06-14T05:47:17;20.30;99.90
33460;DHT22;19795;53.160;6.612;2023-06-14T05:49:42;20.50;99.90
33460;DHT22;19795;53.160;6.612;2023-06-14T05:52:08;20.50;99.90
33460;DHT22;19795;53.160;6.612;2023-06-14T05:54:34;20.80;99.90
33460;DHT22;19795;53.160;6.612;2023-06-14T05:56:59;21.60;99.90
33460;DHT22;19795;53.160;6.612;2023-06-14T05:59:27;21.90;99.90
33460;DHT22;19795;53.160;6.612;2023-06-14T06:01:54;21.80;99.90
33460;DHT22;19795;53.160;6.612;2023-06-14T06:04:20;21.90;99.90
33460;DHT22;19795;53.160;6.612;2023-06-14T06:06:45;22.00;99.90
33460;DHT22;19795;53.160;6.612;2023-06-14T06:09:12;21.40;99.90
33460;DHT22;19795;53.160;6.612;2023-06-14T06:11:40;21.20;99.90
33460;DHT22;19795;53.160;6.612;2023-06-14T06:14:05;21.20;99.90
33460;DHT22;19795;53.160;6.612;2023-06-14T06:16:42;21.70;99.90
33460;DHT22;19795;53.160;6.612;2023-06-14T06:19:10;22.00;99.90
33460;DHT22;19795;53.160;6.612;2023-06-14T06:21:36;21.80;99.90
33460;DHT22;19795;53.160;6.612;2023-06-14T06:24:02;21.40;99.90
33460;DHT22;19795;53.160;6.612;2023-06-14T06:26:31;21.60;99.90
33460;DHT22;19795;53.160;6.612;2023-06-14T06:28:56;21.40;99.90
33460;DHT22;19795;53.160;6.612;2023-06-14T06:31:22;21.60;99.90
33460;DHT22;19795;53.160;6.612;2023-06-14T06:33:48;22.40;99.90
33460;DHT22;19795;53.160;6.612;2023-06-14T06:36:14;22.70;99.40
33460;DHT22;19795;53.160;6.612;2023-06-14T06:38:40;22.20;99.70
33460;DHT22;19795;53.160;6.612;2023-06-14T06:41:06;22.20;99.90
33460;DHT22;19795;53.160;6.612;2023-06-14T06:43:31;22.70;99.70
33460;DHT22;19795;53.160;6.612;2023-06-14T06:45:59;22.80;99.00
33460;DHT22;19795;53.160;6.612;2023-06-14T06:48:25;23.30;99.00
33460;DHT22;19795;53.160;6.612;2023-06-14T06:50:51;24.10;98.40
33460;DHT22;19795;53.160;6.612;2023-06-14T06:53:17;23.90;97.50
33460;DHT22;19795;53.160;6.612;2023-06-14T06:55:44;23.70;98.20
33460;DHT22;19795;53.160;6.612;2023-06-14T06:58:10;24.30;97.50
33460;DHT22;19795;53.160;6.612;2023-06-14T07:00:36;24.30;96.50
33460;DHT22;19795;53.160;6.612;2023-06-14T07:03:01;24.00;96.80
33460;DHT22;19795;53.160;6.612;2023-06-14T07:05:29;23.70;97.40
33460;DHT22;19795;53.160;6.612;2023-06-14T07:07:55;23.30;97.20
33460;DHT22;19795;53.160;6.612;2023-06-14T07:10:21;23.80;97.10
33460;DHT22;19795;53.160;6.612;2023-06-14T07:12:47;24.30;97.50
33460;DHT22;19795;53.160;6.612;2023-06-14T07:15:12;24.60;95.90
33460;DHT22;19795;53.160;6.612;2023-06-14T07:17:38;24.50;96.40
33460;DHT22;19795;53.160;6.612;2023-06-14T07:20:04;24.30;96.60
33460;DHT22;19795;53.160;6.612;2023-06-14T07:22:33;24.80;96.40
33460;DHT22;19795;53.160;6.612;2023-06-14T07:24:59;24.80;95.60
33460;DHT22;19795;53.160;6.612;2023-06-14T07:27:25;24.30;95.90
33460;DHT22;19795;53.160;6.612;2023-06-14T07:29:50;23.80;96.20
33460;DHT22;19795;53.160;6.612;2023-06-14T07:32:16;23.80;96.50
33460;DHT22;19795;53.160;6.612;2023-06-14T07:34:42;24.10;96.30
33460;DHT22;19795;53.160;6.612;2023-06-14T07:37:07;23.90;95.70
33460;DHT22;19795;53.160;6.612;2023-06-14T07:39:33;23.30;96.60
33460;DHT22;19795;53.160;6.612;2023-06-14T07:41:59;23.90;97.10
33460;DHT22;19795;53.160;6.612;2023-06-14T07:44:24;24.00;96.60
33460;DHT22;19795;53.160;6.612;2023-06-14T07:46:50;23.90;95.90
33460;DHT22;19795;53.160;6.612;2023-06-14T07:49:16;23.90;96.20
33460;DHT22;19795;53.160;6.612;2023-06-14T07:51:41;24.40;96.10
33460;DHT22;19795;53.160;6.612;2023-06-14T07:54:08;25.10;95.40
33460;DHT22;19795;53.160;6.612;2023-06-14T07:56:34;25.70;95.60
33460;DHT22;19795;53.160;6.612;2023-06-14T07:59:01;24.40;95.50
33460;DHT22;19795;53.160;6.612;2023-06-14T08:01:26;25.00;96.70
33460;DHT22;19795;53.160;6.612;2023-06-14T08:03:53;25.20;95.40
33460;DHT22;19795;53.160;6.612;2023-06-14T08:06:18;24.70;95.40
33460;DHT22;19795;53.160;6.612;2023-06-14T08:08:44;24.40;95.10
33460;DHT22;19795;53.160;6.612;2023-06-14T08:11:10;24.70;94.60
33460;DHT22;19795;53.160;6.612;2023-06-14T08:13:35;23.30;94.80
33460;DHT22;19795;53.160;6.612;2023-06-14T08:16:01;24.00;95.50
33460;DHT22;19795;53.160;6.612;2023-06-14T08:18:29;24.60;94.50
33460;DHT22;19795;53.160;6.612;2023-06-14T08:20:55;24.70;94.70
33460;DHT22;19795;53.160;6.612;2023-06-14T08:23:23;25.00;94.20
33460;DHT22;19795;53.160;6.612;2023-06-14T08:25:48;25.20;94.00
33460;DHT22;19795;53.160;6.612;2023-06-14T08:28:14;25.20;94.10
33460;DHT22;19795;53.160;6.612;2023-06-14T08:30:40;25.60;93.80
33460;DHT22;19795;53.160;6.612;2023-06-14T08:33:07;25.30;93.60
33460;DHT22;19795;53.160;6.612;2023-06-14T08:35:33;25.20;94.20
33460;DHT22;19795;53.160;6.612;2023-06-14T08:38:02;25.40;94.60
33460;DHT22;19795;53.160;6.612;2023-06-14T08:40:30;25.00;94.00
33460;DHT22;19795;53.160;6.612;2023-06-14T08:42:56;25.00;93.80
33460;DHT22;19795;53.160;6.612;2023-06-14T08:45:23;25.60;95.00
33460;DHT22;19795;53.160;6.612;2023-06-14T08:47:53;26.20;92.80
33460;DHT22;19795;53.160;6.612;2023-06-14T08:50:23;26.00;92.80
33460;DHT22;19795;53.160;6.612;2023-06-14T08:52:53;25.20;92.70
33460;DHT22;19795;53.160;6.612;2023-06-14T08:55:20;24.70;93.90
33460;DHT22;19795;53.160;6.612;2023-06-14T08:57:51;24.50;93.90
33460;DHT22;19795;53.160;6.612;2023-06-14T09:00:20;24.40;93.70
33460;DHT22;19795;53.160;6.612;2023-06-14T09:02:46;25.10;93.50
33460;DHT22;19795;53.160;6.612;2023-06-14T09:05:12;25.50;92.80
33460;DHT22;19795;53.160;6.612;2023-06-14T09:07:42;25.60;94.00
33460;DHT22;19795;53.160;6.612;2023-06-14T09:10:14;26.10;92.60
33460;DHT22;19795;53.160;6.612;2023-06-14T09:12:40;25.10;93.00
33460;DHT22;19795;53.160;6.612;2023-06-14T09:15:07;24.80;92.80
33460;DHT22;19795;53.160;6.612;2023-06-14T09:17:37;25.00;93.50
33460;DHT22;19795;53.160;6.612;2023-06-14T09:20:05;25.30;93.50
33460;DHT22;19795;53.160;6.612;2023-06-14T09:22:32;25.00;92.80
33460;DHT22;19795;53.160;6.612;2023-06-14T09:24:58;24.90;93.20
33460;DHT22;19795;53.160;6.612;2023-06-14T09:27:26;24.80;92.40
33460;DHT22;19795;53.160;6.612;2023-06-14T09:29:52;24.20;93.40
33460;DHT22;19795;53.160;6.612;2023-06-14T09:32:18;24.60;93.20
33460;DHT22;19795;53.160;6.612;2023-06-14T09:34:45;24.70;93.60
33460;DHT22;19795;53.160;6.612;2023-06-14T09:37:11;25.20;93.40
33460;DHT22;19795;53.160;6.612;2023-06-14T09:39:49;25.70;93.50
33460;DHT22;19795;53.160;6.612;2023-06-14T09:42:19;26.00;93.10
33460;DHT22;19795;53.160;6.612;2023-06-14T09:44:48;24.90;93.70
33460;DHT22;19795;53.160;6.612;2023-06-14T09:47:15;24.80;93.50
33460;DHT22;19795;53.160;6.612;2023-06-14T09:49:42;24.60;94.30
33460;DHT22;19795;53.160;6.612;2023-06-14T09:52:15;25.20;94.20
33460;DHT22;19795;53.160;6.612;2023-06-14T09:54:43;24.70;93.20
33460;DHT22;19795;53.160;6.612;2023-06-14T09:57:10;24.90;93.00
33460;DHT22;19795;53.160;6.612;2023-06-14T09:59:44;25.10;93.50
33460;DHT22;19795;53.160;6.612;2023-06-14T10:02:19;24.30;93.20
33460;DHT22;19795;53.160;6.612;2023-06-14T10:07:52;24.30;93.90
33460;DHT22;19795;53.160;6.612;2023-06-14T10:10:19;25.10;93.00
33460;DHT22;19795;53.160;6.612;2023-06-14T10:12:45;25.60;92.60
33460;DHT22;19795;53.160;6.612;2023-06-14T10:15:17;25.20;92.80
33460;DHT22;19795;53.160;6.612;2023-06-14T10:17:58;25.40;92.70
33460;DHT22;19795;53.160;6.612;2023-06-14T10:20:37;26.20;92.40
33460;DHT22;19795;53.160;6.612;2023-06-14T10:23:20;25.70;92.70
33460;DHT22;19795;53.160;6.612;2023-06-14T10:25:50;25.00;92.60
33460;DHT22;19795;53.160;6.612;2023-06-14T10:28:20;24.70;92.40
33460;DHT22;19795;53.160;6.612;2023-06-14T10:31:07;24.70;92.50
33460;DHT22;19795;53.160;6.612;2023-06-14T10:33:34;24.70;92.60
33460;DHT22;19795;53.160;6.612;2023-06-14T10:39:21;25.10;91.90
33460;DHT22;19795;53.160;6.612;2023-06-14T10:41:52;25.60;92.10
33460;DHT22;19795;53.160;6.612;2023-06-14T10:46:47;24.90;92.10
33460;DHT22;19795;53.160;6.612;2023-06-14T10:49:17;25.10;91.90
33460;DHT22;19795;53.160;6.612;2023-06-14T10:51:49;25.20;91.90
33460;DHT22;19795;53.160;6.612;2023-06-14T10:54:21;26.30;91.90
33460;DHT22;19795;53.160;6.612;2023-06-14T10:56:52;26.50;91.80
33460;DHT22;19795;53.160;6.612;2023-06-14T10:59:19;25.70;92.50
33460;DHT22;19795;53.160;6.612;2023-06-14T11:13:00;26.10;91.60
33460;DHT22;19795;53.160;6.612;2023-06-14T11:15:33;26.60;91.20
33460;DHT22;19795;53.160;6.612;2023-06-14T11:18:06;26.70;91.20
33460;DHT22;19795;53.160;6.612;2023-06-14T11:20:33;26.80;90.80
33460;DHT22;19795;53.160;6.612;2023-06-14T11:23:00;26.60;90.50
33460;DHT22;19795;53.160;6.612;2023-06-14T11:25:26;27.30;91.00
33460;DHT22;19795;53.160;6.612;2023-06-14T11:27:53;26.50;90.80
33460;DHT22;19795;53.160;6.612;2023-06-14T11:30:20;26.30;90.50
33460;DHT22;19795;53.160;6.612;2023-06-14T11:32:49;26.70;90.60
33460;DHT22;19795;53.160;6.612;2023-06-14T11:35:16;26.10;91.10
33460;DHT22;19795;53.160;6.612;2023-06-14T11:37:43;25.30;90.10
33460;DHT22;19795;53.160;6.612;2023-06-14T11:40:11;25.40;90.60
33460;DHT22;19795;53.160;6.612;2023-06-14T11:42:38;25.30;91.10
33460;DHT22;19795;53.160;6.612;2023-06-14T11:45:06;25.80;90.60
33460;DHT22;19795;53.160;6.612;2023-06-14T11:47:33;26.10;90.10
33460;DHT22;19795;53.160;6.612;2023-06-14T11:50:03;26.30;90.10
33460;DHT22;19795;53.160;6.612;2023-06-14T11:52:28;26.90;88.40
33460;DHT22;19795;53.160;6.612;2023-06-14T11:54:55;25.30;90.30
33460;DHT22;19795;53.160;6.612;2023-06-14T11:57:21;25.70;90.30
33460;DHT22;19795;53.160;6.612;2023-06-14T11:59:47;26.40;90.20
33460;DHT22;19795;53.160;6.612;2023-06-14T12:02:15;26.10;90.20
33460;DHT22;19795;53.160;6.612;2023-06-14T12:04:41;25.10;90.40
33460;DHT22;19795;53.160;6.612;2023-06-14T12:07:15;25.90;90.20
33460;DHT22;19795;53.160;6.612;2023-06-14T12:12:20;26.70;89.40
33460;DHT22;19795;53.160;6.612;2023-06-14T12:14:47;27.00;89.20
33460;DHT22;19795;53.160;6.612;2023-06-14T12:17:12;27.40;88.80
33460;DHT22;19795;53.160;6.612;2023-06-14T12:19:42;26.80;88.20
33460;DHT22;19795;53.160;6.612;2023-06-14T12:22:15;25.60;90.20
33460;DHT22;19795;53.160;6.612;2023-06-14T12:24:45;26.30;90.00
33460;DHT22;19795;53.160;6.612;2023-06-14T12:27:11;27.00;90.10
33460;DHT22;19795;53.160;6.612;2023-06-14T12:29:42;27.30;89.40
33460;DHT22;19795;53.160;6.612;2023-06-14T12:32:11;27.00;88.60
33460;DHT22;19795;53.160;6.612;2023-06-14T12:34:37;26.80;89.30
33460;DHT22;19795;53.160;6.612;2023-06-14T12:37:03;25.90;89.80
33460;DHT22;19795;53.160;6.612;2023-06-14T12:39:29;26.30;90.10
33460;DHT22;19795;53.160;6.612;2023-06-14T12:41:57;26.20;89.00
33460;DHT22;19795;53.160;6.612;2023-06-14T12:44:23;26.50;89.20
33460;DHT22;19795;53.160;6.612;2023-06-14T12:46:51;27.00;87.70
33460;DHT22;19795;53.160;6.612;2023-06-14T12:49:19;26.50;89.00
33460;DHT22;19795;53.160;6.612;2023-06-14T12:51:45;26.70;89.30
33460;DHT22;19795;53.160;6.612;2023-06-14T12:54:11;26.40;89.30
33460;DHT22;19795;53.160;6.612;2023-06-14T12:56:38;26.50;89.70
33460;DHT22;19795;53.160;6.612;2023-06-14T12:59:03;26.30;89.80
33460;DHT22;19795;53.160;6.612;2023-06-14T13:01:34;26.30;88.40
33460;DHT22;19795;53.160;6.612;2023-06-14T13:04:00;25.70;89.60
33460;DHT22;19795;53.160;6.612;2023-06-14T13:06:26;26.20;89.40
33460;DHT22;19795;53.160;6.612;2023-06-14T13:08:52;26.00;89.30
33460;DHT22;19795;53.160;6.612;2023-06-14T13:11:23;26.60;90.00
33460;DHT22;19795;53.160;6.612;2023-06-14T13:13:49;26.50;88.00
33460;DHT22;19795;53.160;6.612;2023-06-14T13:16:14;25.60;90.10
33460;DHT22;19795;53.160;6.612;2023-06-14T13:18:40;25.80;90.10
33460;DHT22;19795;53.160;6.612;2023-06-14T13:21:06;26.30;89.40
33460;DHT22;19795;53.160;6.612;2023-06-14T13:23:31;27.40;88.80
33460;DHT22;19795;53.160;6.612;2023-06-14T13:25:57;27.70;86.90
33460;DHT22;19795;53.160;6.612;2023-06-14T13:28:22;28.10;86.00
33460;DHT22;19795;53.160;6.612;2023-06-14T13:30:48;27.00;88.50
33460;DHT22;19795;53.160;6.612;2023-06-14T13:33:14;25.00;90.20
33460;DHT22;19795;53.160;6.612;2023-06-14T13:35:39;25.70;90.00
33460;DHT22;19795;53.160;6.612;2023-06-14T13:38:05;27.10;87.80
33460;DHT22;19795;53.160;6.612;2023-06-14T13:40:31;27.00;87.80
33460;DHT22;19795;53.160;6.612;2023-06-14T13:42:56;27.40;87.20
33460;DHT22;19795;53.160;6.612;2023-06-14T13:45:22;27.30;86.60
33460;DHT22;19795;53.160;6.612;2023-06-14T13:47:48;27.60;87.80
33460;DHT22;19795;53.160;6.612;2023-06-14T13:50:14;28.50;88.00
33460;DHT22;19795;53.160;6.612;2023-06-14T13:52:39;28.90;85.70
33460;DHT22;19795;53.160;6.612;2023-06-14T13:55:05;28.30;85.80
33460;DHT22;19795;53.160;6.612;2023-06-14T13:57:32;27.60;86.40
33460;DHT22;19795;53.160;6.612;2023-06-14T13:59:58;26.80;89.20
33460;DHT22;19795;53.160;6.612;2023-06-14T14:02:32;25.90;89.30
33460;DHT22;19795;53.160;6.612;2023-06-14T14:04:58;26.70;88.00
33460;DHT22;19795;53.160;6.612;2023-06-14T14:07:23;28.10;87.00
33460;DHT22;19795;53.160;6.612;2023-06-14T14:09:49;29.10;85.20
33460;DHT22;19795;53.160;6.612;2023-06-14T14:12:15;29.70;84.30
33460;DHT22;19795;53.160;6.612;2023-06-14T14:14:41;28.10;86.30
33460;DHT22;19795;53.160;6.612;2023-06-14T14:17:09;26.10;88.80
33460;DHT22;19795;53.160;6.612;2023-06-14T14:19:35;25.40;89.50
33460;DHT22;19795;53.160;6.612;2023-06-14T14:22:01;26.10;89.50
33460;DHT22;19795;53.160;6.612;2023-06-14T14:24:27;27.30;87.10
33460;DHT22;19795;53.160;6.612;2023-06-14T14:26:53;27.50;85.70
33460;DHT22;19795;53.160;6.612;2023-06-14T14:29:19;27.20;85.40
33460;DHT22;19795;53.160;6.612;2023-06-14T14:31:45;27.20;85.80
33460;DHT22;19795;53.160;6.612;2023-06-14T14:34:12;27.00;86.50
33460;DHT22;19795;53.160;6.612;2023-06-14T14:36:37;27.40;85.90
33460;DHT22;19795;53.160;6.612;2023-06-14T14:39:08;28.00;85.20
33460;DHT22;19795;53.160;6.612;2023-06-14T14:41:33;28.30;84.00
33460;DHT22;19795;53.160;6.612;2023-06-14T14:43:59;28.20;85.20
33460;DHT22;19795;53.160;6.612;2023-06-14T14:46:27;27.60;86.70
33460;DHT22;19795;53.160;6.612;2023-06-14T14:48:53;26.70;87.00
33460;DHT22;19795;53.160;6.612;2023-06-14T14:51:18;26.00;88.00
33460;DHT22;19795;53.160;6.612;2023-06-14T14:53:44;25.60;88.50
33460;DHT22;19795;53.160;6.612;2023-06-14T14:56:10;25.40;88.10
33460;DHT22;19795;53.160;6.612;2023-06-14T14:58:37;25.20;89.50
33460;DHT22;19795;53.160;6.612;2023-06-14T15:01:03;25.20;89.40
33460;DHT22;19795;53.160;6.612;2023-06-14T15:03:31;25.40;89.50
33460;DHT22;19795;53.160;6.612;2023-06-14T15:05:56;25.60;89.40
33460;DHT22;19795;53.160;6.612;2023-06-14T15:08:22;25.50;88.80
33460;DHT22;19795;53.160;6.612;2023-06-14T15:10:49;25.40;88.40
33460;DHT22;19795;53.160;6.612;2023-06-14T15:13:15;25.40;88.50
33460;DHT22;19795;53.160;6.612;2023-06-14T15:15:40;25.50;88.50
33460;DHT22;19795;53.160;6.612;2023-06-14T15:18:06;25.80;87.50
33460;DHT22;19795;53.160;6.612;2023-06-14T15:20:32;26.00;86.10
33460;DHT22;19795;53.160;6.612;2023-06-14T15:22:57;26.20;86.20
33460;DHT22;19795;53.160;6.612;2023-06-14T15:25:28;26.20;85.70
33460;DHT22;19795;53.160;6.612;2023-06-14T15:27:55;26.10;85.40
33460;DHT22;19795;53.160;6.612;2023-06-14T15:30:21;26.20;87.10
33460;DHT22;19795;53.160;6.612;2023-06-14T15:32:48;25.80;87.30
33460;DHT22;19795;53.160;6.612;2023-06-14T15:35:14;25.30;87.30
33460;DHT22;19795;53.160;6.612;2023-06-14T15:37:40;24.70;88.30
33460;DHT22;19795;53.160;6.612;2023-06-14T15:40:06;24.80;88.70
33460;DHT22;19795;53.160;6.612;2023-06-14T15:42:32;25.10;88.90
33460;DHT22;19795;53.160;6.612;2023-06-14T15:44:57;25.40;89.00
33460;DHT22;19795;53.160;6.612;2023-06-14T15:47:23;25.40;88.00
33460;DHT22;19795;53.160;6.612;2023-06-14T15:49:49;25.70;87.10
33460;DHT22;19795;53.160;6.612;2023-06-14T15:52:15;26.00;86.90
33460;DHT22;19795;53.160;6.612;2023-06-14T15:54:40;25.60;86.90
33460;DHT22;19795;53.160;6.612;2023-06-14T15:57:06;25.30;87.70
33460;DHT22;19795;53.160;6.612;2023-06-14T15:59:32;25.30;88.00
33460;DHT22;19795;53.160;6.612;2023-06-14T16:01:58;25.30;86.20
33460;DHT22;19795;53.160;6.612;2023-06-14T16:04:23;25.40;86.40
33460;DHT22;19795;53.160;6.612;2023-06-14T16:06:49;25.60;87.10
33460;DHT22;19795;53.160;6.612;2023-06-14T16:09:15;26.20;86.50
33460;DHT22;19795;53.160;6.612;2023-06-14T16:11:40;26.60;87.50
33460;DHT22;19795;53.160;6.612;2023-06-14T16:14:06;26.10;86.70
33460;DHT22;19795;53.160;6.612;2023-06-14T16:16:32;25.70;87.70
33460;DHT22;19795;53.160;6.612;2023-06-14T16:18:57;25.70;87.20
33460;DHT22;19795;53.160;6.612;2023-06-14T16:21:23;25.20;87.90
33460;DHT22;19795;53.160;6.612;2023-06-14T16:23:49;25.20;88.10
33460;DHT22;19795;53.160;6.612;2023-06-14T16:26:15;25.10;88.60
33460;DHT22;19795;53.160;6.612;2023-06-14T16:28:41;24.80;88.10
33460;DHT22;19795;53.160;6.612;2023-06-14T16:31:11;24.50;89.20
33460;DHT22;19795;53.160;6.612;2023-06-14T16:33:40;24.40;89.30
33460;DHT22;19795;53.160;6.612;2023-06-14T16:36:05;24.40;90.00
33460;DHT22;19795;53.160;6.612;2023-06-14T16:38:31;24.40;89.30
33460;DHT22;19795;53.160;6.612;2023-06-14T16:40:58;24.70;89.50
33460;DHT22;19795;53.160;6.612;2023-06-14T16:43:24;25.40;89.30
33460;DHT22;19795;53.160;6.612;2023-06-14T16:45:49;25.60;92.60
33460;DHT22;19795;53.160;6.612;2023-06-14T16:48:15;25.30;93.80
33460;DHT22;19795;53.160;6.612;2023-06-14T16:50:41;25.30;94.20
33460;DHT22;19795;53.160;6.612;2023-06-14T16:53:06;24.50;95.20
33460;DHT22;19795;53.160;6.612;2023-06-14T16:55:32;24.40;95.80
33460;DHT22;19795;53.160;6.612;2023-06-14T16:58:00;25.00;94.90
33460;DHT22;19795;53.160;6.612;2023-06-14T17:00:26;25.40;94.50
33460;DHT22;19795;53.160;6.612;2023-06-14T17:02:56;24.40;95.70
33460;DHT22;19795;53.160;6.612;2023-06-14T17:05:21;23.90;96.80
33460;DHT22;19795;53.160;6.612;2023-06-14T17:07:47;23.10;97.60
33460;DHT22;19795;53.160;6.612;2023-06-14T17:10:13;23.00;98.20
33460;DHT22;19795;53.160;6.612;2023-06-14T17:12:39;22.90;98.80
33460;DHT22;19795;53.160;6.612;2023-06-14T17:15:07;22.70;99.10
33460;DHT22;19795;53.160;6.612;2023-06-14T17:17:32;22.70;99.70
33460;DHT22;19795;53.160;6.612;2023-06-14T17:19:58;23.10;99.00
33460;DHT22;19795;53.160;6.612;2023-06-14T17:22:24;23.90;97.90
33460;DHT22;19795;53.160;6.612;2023-06-14T17:24:49;24.50;97.10
33460;DHT22;19795;53.160;6.612;2023-06-14T17:27:15;24.90;96.60
33460;DHT22;19795;53.160;6.612;2023-06-14T17:29:42;24.70;96.50
33460;DHT22;19795;53.160;6.612;2023-06-14T17:32:08;24.60;96.10
33460;DHT22;19795;53.160;6.612;2023-06-14T17:34:34;24.80;96.20
33460;DHT22;19795;53.160;6.612;2023-06-14T17:36:59;24.80;96.40
33460;DHT22;19795;53.160;6.612;2023-06-14T17:39:25;24.80;96.20
33460;DHT22;19795;53.160;6.612;2023-06-14T17:41:51;24.70;96.10
33460;DHT22;19795;53.160;6.612;2023-06-14T17:44:17;24.50;96.50
33460;DHT22;19795;53.160;6.612;2023-06-14T17:46:42;24.60;96.40
33460;DHT22;19795;53.160;6.612;2023-06-14T17:49:09;24.20;96.50
33460;DHT22;19795;53.160;6.612;2023-06-14T17:51:35;24.60;96.40
33460;DHT22;19795;53.160;6.612;2023-06-14T17:54:01;24.50;96.40
33460;DHT22;19795;53.160;6.612;2023-06-14T17:56:27;24.70;96.30
33460;DHT22;19795;53.160;6.612;2023-06-14T17:58:53;24.80;96.20
33460;DHT22;19795;53.160;6.612;2023-06-14T18:01:21;24.60;96.30
33460;DHT22;19795;53.160;6.612;2023-06-14T18:03:47;24.40;96.80
33460;DHT22;19795;53.160;6.612;2023-06-14T18:06:13;24.30;96.80
33460;DHT22;19795;53.160;6.612;2023-06-14T18:08:38;24.70;96.00
33460;DHT22;19795;53.160;6.612;2023-06-14T18:11:04;24.70;95.80
33460;DHT22;19795;53.160;6.612;2023-06-14T18:13:30;24.00;96.50
33460;DHT22;19795;53.160;6.612;2023-06-14T18:15:57;23.80;96.40
33460;DHT22;19795;53.160;6.612;2023-06-14T18:18:23;23.80;96.70
33460;DHT22;19795;53.160;6.612;2023-06-14T18:20:49;23.80;96.70
33460;DHT22;19795;53.160;6.612;2023-06-14T18:23:15;23.80;97.00
33460;DHT22;19795;53.160;6.612;2023-06-14T18:25:40;23.90;96.60
33460;DHT22;19795;53.160;6.612;2023-06-14T18:28:06;23.70;97.10
33460;DHT22;19795;53.160;6.612;2023-06-14T18:30:32;23.60;97.20
33460;DHT22;19795;53.160;6.612;2023-06-14T18:32:58;23.60;97.60
33460;DHT22;19795;53.160;6.612;2023-06-14T18:35:23;23.60;97.40
33460;DHT22;19795;53.160;6.612;2023-06-14T18:37:49;23.30;97.50
33460;DHT22;19795;53.160;6.612;2023-06-14T18:40:15;23.30;97.60
33460;DHT22;19795;53.160;6.612;2023-06-14T18:42:40;23.30;97.80
33460;DHT22;19795;53.160;6.612;2023-06-14T18:45:07;23.40;97.90
33460;DHT22;19795;53.160;6.612;2023-06-14T18:47:32;23.10;97.90
33460;DHT22;19795;53.160;6.612;2023-06-14T18:49:58;22.70;98.60
33460;DHT22;19795;53.160;6.612;2023-06-14T18:52:24;22.50;99.30
33460;DHT22;19795;53.160;6.612;2023-06-14T18:54:49;22.10;99.30
33460;DHT22;19795;53.160;6.612;2023-06-14T18:57:15;21.60;99.90
33460;DHT22;19795;53.160;6.612;2023-06-14T18:59:41;21.30;99.90
33460;DHT22;19795;53.160;6.612;2023-06-14T19:02:06;21.20;99.90
33460;DHT22;19795;53.160;6.612;2023-06-14T19:04:32;21.00;99.90
33460;DHT22;19795;53.160;6.612;2023-06-14T19:07:00;20.90;99.90
33460;DHT22;19795;53.160;6.612;2023-06-14T19:09:26;20.90;99.90
33460;DHT22;19795;53.160;6.612;2023-06-14T19:11:52;20.70;99.90
33460;DHT22;19795;53.160;6.612;2023-06-14T19:14:18;20.70;99.90
33460;DHT22;19795;53.160;6.612;2023-06-14T19:16:44;20.60;99.90
33460;DHT22;19795;53.160;6.612;2023-06-14T19:19:09;20.50;99.90
33460;DHT22;19795;53.160;6.612;2023-06-14T19:21:35;20.40;99.90
33460;DHT22;19795;53.160;6.612;2023-06-14T19:24:01;20.30;99.90
33460;DHT22;19795;53.160;6.612;2023-06-14T19:26:26;20.20;99.90
33460;DHT22;19795;53.160;6.612;2023-06-14T19:28:55;20.10;99.90
33460;DHT22;19795;53.160;6.612;2023-06-14T19:31:24;20.10;99.90
33460;DHT22;19795;53.160;6.612;2023-06-14T19:33:49;20.00;99.90